createdAt,value
2023-04-26T00:00:00.731Z,6.10
2023-04-26T00:02:30.503Z,6.03
2023-04-26T00:04:59.293Z,5.88
2023-04-26T00:07:26.183Z,5.84
2023-04-26T00:09:53.135Z,5.71
2023-04-26T00:12:20.056Z,5.66
2023-04-26T00:14:46.917Z,5.74
2023-04-26T00:17:13.686Z,5.58
2023-04-26T00:19:40.372Z,5.51
2023-04-26T00:22:07.136Z,5.42
2023-04-26T00:24:33.932Z,5.50
2023-04-26T00:27:01.871Z,5.37
2023-04-26T00:29:28.693Z,5.44
2023-04-26T00:31:55.588Z,5.40
2023-04-26T00:34:22.406Z,5.49
2023-04-26T00:36:49.505Z,5.43
2023-04-26T00:39:16.638Z,5.31
2023-04-26T00:41:43.675Z,5.39
2023-04-26T00:44:10.665Z,5.33
2023-04-26T00:46:37.559Z,5.32
2023-04-26T00:49:04.446Z,5.34
2023-04-26T00:51:31.785Z,5.30
2023-04-26T00:53:59.809Z,5.05
2023-04-26T00:56:26.662Z,5.09
2023-04-26T00:58:53.908Z,5.02
2023-04-26T01:01:21.774Z,4.98
2023-04-26T01:03:49.307Z,5.11
2023-04-26T01:06:16.255Z,5.13
2023-04-26T01:08:43.101Z,5.15
2023-04-26T01:11:09.933Z,5.04
2023-04-26T01:13:38.133Z,5.11
2023-04-26T01:16:05.392Z,5.04
2023-04-26T01:18:32.068Z,4.95
2023-04-26T01:21:00.569Z,4.88
2023-04-26T01:23:28.793Z,4.87
2023-04-26T01:25:56.711Z,4.89
2023-04-26T01:28:23.679Z,4.90
2023-04-26T01:30:50.466Z,4.87
2023-04-26T01:33:17.585Z,5.00
2023-04-26T01:35:44.436Z,5.02
2023-04-26T01:38:11.396Z,4.99
2023-04-26T01:40:38.089Z,5.07
2023-04-26T01:43:04.887Z,5.04
2023-04-26T01:45:31.630Z,5.02
2023-04-26T01:47:58.695Z,4.92
2023-04-26T01:50:25.505Z,4.80
2023-04-26T01:52:52.261Z,4.62
2023-04-26T01:55:19.296Z,4.65
2023-04-26T01:57:46.298Z,4.59
2023-04-26T02:00:13.318Z,4.55
2023-04-26T02:02:40.247Z,4.45
2023-04-26T02:05:09.580Z,4.34
2023-04-26T02:07:36.312Z,4.17
2023-04-26T02:10:03.804Z,4.13
2023-04-26T02:12:30.600Z,4.01
2023-04-26T02:14:57.348Z,4.18
2023-04-26T02:17:26.739Z,4.14
2023-04-26T02:19:53.970Z,4.11
2023-04-26T02:22:23.571Z,4.03
2023-04-26T02:24:50.427Z,4.06
2023-04-26T02:27:17.312Z,4.05
2023-04-26T02:29:44.961Z,3.98
2023-04-26T02:32:12.867Z,3.99
2023-04-26T02:34:39.672Z,3.82
2023-04-26T02:37:06.469Z,3.74
2023-04-26T02:39:33.340Z,3.78
2023-04-26T02:42:00.116Z,3.64
2023-04-26T02:44:30.540Z,3.47
2023-04-26T02:46:58.063Z,3.37
2023-04-26T02:49:25.136Z,3.35
2023-04-26T02:51:52.095Z,3.27
2023-04-26T02:54:18.802Z,3.48
2023-04-26T02:56:45.839Z,3.54
2023-04-26T02:59:12.603Z,3.44
2023-04-26T03:01:39.610Z,3.51
2023-04-26T03:04:06.662Z,3.35
2023-04-26T03:06:33.711Z,3.31
2023-04-26T03:09:00.652Z,3.16
2023-04-26T03:11:27.561Z,3.09
2023-04-26T03:13:54.281Z,3.17
2023-04-26T03:16:24.341Z,3.08
2023-04-26T03:18:51.345Z,3.07
2023-04-26T03:21:18.275Z,3.04
2023-04-26T03:23:45.018Z,2.89
2023-04-26T03:26:12.027Z,2.90
2023-04-26T03:28:38.804Z,2.78
2023-04-26T03:31:05.662Z,2.86
2023-04-26T03:33:32.504Z,2.92
2023-04-26T03:35:59.230Z,2.97
2023-04-26T03:38:26.449Z,3.11
2023-04-26T03:40:53.204Z,2.98
2023-04-26T03:43:19.909Z,2.90
2023-04-26T03:45:50.446Z,2.75
2023-04-26T03:48:17.500Z,2.71
2023-04-26T03:50:47.322Z,2.78
2023-04-26T03:53:14.050Z,2.77
2023-04-26T03:55:40.873Z,2.65
2023-04-26T03:58:08.684Z,2.76
2023-04-26T04:00:38.112Z,2.51
2023-04-26T04:03:05.724Z,2.58
2023-04-26T04:05:32.944Z,2.62
2023-04-26T04:08:00.227Z,2.65
2023-04-26T04:10:27.002Z,2.53
2023-04-26T04:12:54.419Z,2.48
2023-04-26T04:15:21.593Z,2.61
2023-04-26T04:17:48.409Z,2.56
2023-04-26T04:20:15.314Z,2.61
2023-04-26T04:22:42.127Z,2.57
2023-04-26T04:25:10.700Z,2.62
2023-04-26T04:27:38.382Z,2.62
2023-04-26T04:30:07.861Z,2.75
2023-04-26T04:32:35.330Z,2.67
2023-04-26T04:35:02.572Z,2.68
2023-04-26T04:37:29.461Z,2.57
2023-04-26T04:39:56.317Z,2.60
2023-04-26T04:42:23.741Z,2.62
2023-04-26T04:44:50.933Z,2.58
2023-04-26T04:47:18.067Z,2.68
2023-04-26T04:49:45.328Z,2.80
2023-04-26T04:52:12.539Z,2.76
2023-04-26T04:54:39.329Z,2.81
2023-04-26T04:57:06.870Z,2.88
2023-04-26T04:59:33.893Z,2.95
2023-04-26T05:02:01.102Z,2.98
2023-04-26T05:04:27.962Z,3.03
2023-04-26T05:06:55.281Z,3.13
2023-04-26T05:09:22.015Z,3.26
2023-04-26T05:11:48.913Z,3.34
2023-04-26T05:14:15.940Z,3.46
2023-04-26T05:16:42.818Z,3.53
2023-04-26T05:19:09.879Z,3.63
2023-04-26T05:21:36.846Z,3.82
2023-04-26T05:24:04.627Z,3.83
2023-04-26T05:26:31.407Z,3.93
2023-04-26T05:28:58.283Z,3.92
2023-04-26T05:31:25.112Z,3.99
2023-04-26T05:33:52.499Z,4.05
2023-04-26T05:36:19.804Z,4.18
2023-04-26T05:38:46.740Z,4.15
2023-04-26T05:41:13.443Z,4.35
2023-04-26T05:43:41.148Z,4.40
2023-04-26T05:46:08.087Z,4.56
2023-04-26T05:48:35.134Z,4.62
2023-04-26T05:51:02.537Z,4.74
2023-04-26T05:53:29.481Z,4.86
2023-04-26T05:55:57.065Z,4.92
2023-04-26T05:58:24.096Z,4.98
2023-04-26T06:00:51.301Z,5.05
2023-04-26T06:03:19.203Z,5.13
2023-04-26T06:05:46.421Z,5.25
2023-04-26T06:08:13.448Z,5.39
2023-04-26T06:10:40.282Z,5.41
2023-04-26T06:13:07.097Z,5.63
2023-04-26T06:15:34.442Z,5.73
2023-04-26T06:18:01.293Z,5.74
2023-04-26T06:20:28.374Z,5.61
2023-04-26T06:22:55.171Z,5.77
2023-04-26T06:25:22.193Z,5.87
2023-04-26T06:27:49.172Z,6.08
2023-04-26T06:30:16.258Z,6.28
2023-04-26T06:32:43.256Z,6.36
2023-04-26T06:35:10.270Z,6.34
2023-04-26T06:37:37.749Z,6.39
2023-04-26T06:40:05.510Z,6.54
2023-04-26T06:42:32.896Z,6.61
2023-04-26T06:45:00.008Z,6.69
2023-04-26T06:47:27.401Z,6.82
2023-04-26T06:49:54.202Z,7.00
2023-04-26T06:52:21.670Z,6.95
2023-04-26T06:54:56.530Z,6.91
2023-04-26T06:57:26.784Z,7.07
2023-04-26T06:59:53.899Z,7.15
2023-04-26T07:02:21.233Z,7.32
2023-04-26T07:04:48.173Z,7.51
2023-04-26T07:07:15.892Z,7.31
2023-04-26T07:09:43.647Z,7.16
2023-04-26T07:12:14.140Z,7.09
2023-04-26T07:14:41.771Z,7.10
2023-04-26T07:17:08.881Z,7.44
2023-04-26T07:19:35.765Z,7.39
2023-04-26T07:22:02.816Z,7.49
2023-04-26T07:24:29.709Z,7.38
2023-04-26T07:26:56.953Z,7.17
2023-04-26T07:29:24.810Z,7.27
2023-04-26T07:31:51.843Z,7.24
2023-04-26T07:34:18.814Z,7.29
2023-04-26T07:36:46.167Z,7.20
2023-04-26T07:39:12.955Z,7.29
2023-04-26T07:41:42.432Z,7.51
2023-04-26T07:44:11.623Z,7.73
2023-04-26T07:46:40.586Z,7.65
2023-04-26T07:49:08.037Z,7.56
2023-04-26T07:51:36.493Z,7.60
2023-04-26T07:54:03.381Z,7.63
2023-04-26T07:56:30.806Z,7.70
2023-04-26T07:58:57.977Z,7.63
2023-04-26T08:01:25.462Z,7.53
2023-04-26T08:03:53.580Z,7.10
2023-04-26T08:06:21.327Z,7.09
2023-04-26T08:08:51.022Z,7.28
2023-04-26T08:11:18.700Z,7.67
2023-04-26T08:13:46.032Z,8.13
2023-04-26T08:16:15.456Z,8.35
2023-04-26T08:18:45.382Z,8.27
2023-04-26T08:21:13.690Z,8.33
2023-04-26T08:23:40.419Z,8.22
2023-04-26T08:26:07.580Z,8.09
2023-04-26T08:28:36.094Z,7.89
2023-04-26T08:31:02.994Z,7.91
2023-04-26T08:33:30.023Z,7.89
2023-04-26T08:35:57.459Z,7.93
2023-04-26T08:38:25.221Z,8.16
2023-04-26T08:40:55.305Z,8.24
2023-04-26T08:43:25.356Z,8.69
2023-04-26T08:45:53.037Z,9.05
2023-04-26T08:48:20.203Z,9.10
2023-04-26T08:50:47.928Z,8.91
2023-04-26T08:53:18.432Z,8.70
2023-04-26T08:55:49.532Z,8.62
2023-04-26T08:58:18.168Z,8.43
2023-04-26T09:00:46.238Z,8.58
2023-04-26T09:03:13.724Z,8.48
2023-04-26T09:05:44.473Z,8.43
2023-04-26T09:08:17.736Z,8.51
2023-04-26T09:10:45.619Z,8.56
2023-04-26T09:13:13.547Z,8.57
2023-04-26T09:15:41.804Z,8.67
2023-04-26T09:18:19.165Z,8.89
2023-04-26T09:20:47.532Z,8.77
2023-04-26T09:23:18.582Z,8.70
2023-04-26T09:25:45.519Z,8.55
2023-04-26T09:28:22.963Z,8.59
2023-04-26T09:30:50.897Z,8.61
2023-04-26T09:33:20.250Z,8.67
2023-04-26T09:35:50.942Z,8.45
2023-04-26T09:38:19.171Z,8.58
2023-04-26T09:40:48.607Z,8.75
2023-04-26T09:43:22.910Z,9.03
2023-04-26T09:45:51.444Z,9.09
2023-04-26T09:48:27.509Z,9.37
2023-04-26T09:50:56.809Z,9.43
2023-04-26T09:53:43.000Z,9.66
2023-04-26T09:56:19.584Z,9.57
2023-04-26T09:59:01.651Z,9.93
2023-04-26T10:01:31.277Z,10.11
2023-04-26T10:03:58.786Z,10.27
2023-04-26T10:06:26.410Z,10.19
2023-04-26T10:08:56.486Z,10.19
2023-04-26T10:11:30.936Z,10.04
2023-04-26T10:13:58.129Z,9.69
2023-04-26T10:16:25.631Z,9.70
2023-04-26T10:18:53.186Z,9.67
2023-04-26T10:21:29.589Z,9.60
2023-04-26T10:23:57.003Z,9.29
2023-04-26T10:26:57.784Z,9.48
2023-04-26T10:29:26.462Z,9.42
2023-04-26T10:32:06.754Z,9.45
2023-04-26T10:34:35.338Z,9.46
2023-04-26T10:37:10.540Z,9.63
2023-04-26T10:39:41.385Z,9.49
2023-04-26T10:42:32.940Z,9.72
2023-04-26T10:45:00.787Z,9.66
2023-04-26T10:47:32.763Z,9.58
2023-04-26T10:50:05.861Z,9.69
2023-04-26T10:52:34.143Z,9.73
2023-04-26T10:55:02.655Z,9.43
2023-04-26T10:57:50.687Z,9.53
2023-04-26T11:00:21.399Z,9.52
2023-04-26T11:03:00.391Z,9.62
2023-04-26T11:05:57.733Z,9.55
2023-04-26T11:08:30.864Z,9.62
2023-04-26T11:11:09.657Z,9.55
2023-04-26T11:13:44.860Z,9.60
2023-04-26T11:16:17.034Z,9.78
2023-04-26T11:18:46.674Z,9.92
2023-04-26T11:21:18.502Z,10.07
2023-04-26T11:23:54.774Z,10.31
2023-04-26T11:26:22.823Z,10.39
2023-04-26T11:28:51.602Z,10.55
2023-04-26T11:31:19.634Z,10.49
2023-04-26T11:33:50.039Z,10.25
2023-04-26T11:36:17.889Z,10.11
2023-04-26T11:38:44.944Z,9.98
2023-04-26T11:41:12.724Z,9.68
2023-04-26T11:43:40.293Z,9.86
2023-04-26T11:46:09.108Z,9.91
2023-04-26T11:48:39.049Z,10.00
2023-04-26T11:51:07.963Z,9.72
2023-04-26T11:53:41.146Z,10.01
2023-04-26T11:56:19.255Z,10.04
2023-04-26T11:58:55.056Z,10.04
2023-04-26T12:01:27.238Z,9.98
2023-04-26T12:03:56.942Z,10.01
2023-04-26T12:06:45.545Z,9.98
2023-04-26T12:09:13.870Z,10.05
2023-04-26T12:11:49.565Z,10.21
2023-04-26T12:14:16.841Z,10.23
2023-04-26T12:16:43.811Z,10.24
2023-04-26T12:19:11.620Z,10.29
2023-04-26T12:21:43.264Z,10.42
2023-04-26T12:24:27.021Z,10.32
2023-04-26T12:26:54.059Z,10.44
2023-04-26T12:29:21.057Z,10.56
2023-04-26T12:31:48.245Z,10.33
2023-04-26T12:34:15.529Z,10.52
2023-04-26T12:36:45.492Z,10.54
2023-04-26T12:39:14.393Z,10.56
2023-04-26T12:41:45.145Z,10.55
2023-04-26T12:44:13.228Z,10.49
2023-04-26T12:46:40.841Z,10.48
2023-04-26T12:49:14.401Z,10.48
2023-04-26T12:51:41.929Z,10.40
2023-04-26T12:54:18.731Z,10.65
2023-04-26T12:56:47.128Z,10.39
2023-04-26T12:59:19.216Z,10.33
2023-04-26T13:01:48.472Z,10.55
2023-04-26T13:04:17.603Z,10.45
2023-04-26T13:06:44.901Z,10.37
2023-04-26T13:09:14.307Z,10.46
2023-04-26T13:11:41.763Z,10.37
2023-04-26T13:14:09.713Z,10.30
2023-04-26T13:16:39.153Z,10.12
2023-04-26T13:19:07.321Z,9.94
2023-04-26T13:21:34.624Z,9.86
2023-04-26T13:24:01.655Z,9.78
2023-04-26T13:26:29.052Z,9.93
2023-04-26T13:28:56.417Z,10.09
2023-04-26T13:31:23.682Z,10.29
2023-04-26T13:33:51.148Z,10.50
2023-04-26T13:36:21.385Z,10.74
2023-04-26T13:38:49.168Z,10.77
2023-04-26T13:41:16.685Z,10.66
2023-04-26T13:43:47.219Z,10.59
2023-04-26T13:46:14.537Z,10.67
2023-04-26T13:48:41.629Z,10.59
2023-04-26T13:51:08.657Z,10.56
2023-04-26T13:53:35.636Z,10.76
2023-04-26T13:56:02.584Z,10.61
2023-04-26T13:58:29.358Z,10.77
2023-04-26T14:01:03.082Z,10.87
2023-04-26T14:03:30.169Z,10.80
2023-04-26T14:05:59.739Z,10.58
2023-04-26T14:08:26.816Z,10.70
2023-04-26T14:10:56.512Z,10.67
2023-04-26T14:13:24.780Z,10.76
2023-04-26T14:15:51.772Z,10.59
2023-04-26T14:18:18.926Z,10.50
2023-04-26T14:20:46.140Z,10.34
2023-04-26T14:23:12.931Z,10.46
2023-04-26T14:25:40.887Z,10.37
2023-04-26T14:28:08.709Z,10.24
2023-04-26T14:30:35.892Z,10.32
2023-04-26T14:33:03.129Z,10.35
2023-04-26T14:35:33.131Z,10.30
2023-04-26T14:38:00.348Z,10.55
2023-04-26T14:40:27.219Z,10.62
2023-04-26T14:42:54.194Z,10.61
2023-04-26T14:45:23.662Z,10.51
2023-04-26T14:47:54.794Z,10.62
2023-04-26T14:50:21.886Z,10.64
2023-04-26T14:52:49.104Z,10.82
2023-04-26T14:55:23.739Z,10.84
2023-04-26T14:57:55.391Z,10.83
2023-04-26T15:00:23.818Z,10.83
2023-04-26T15:02:53.244Z,10.82
2023-04-26T15:05:27.690Z,10.94
2023-04-26T15:08:02.278Z,11.06
2023-04-26T15:10:30.051Z,10.87
2023-04-26T15:12:58.238Z,10.96
2023-04-26T15:15:25.306Z,11.27
2023-04-26T15:17:53.097Z,11.28
2023-04-26T15:20:25.539Z,11.28
2023-04-26T15:22:52.736Z,10.93
2023-04-26T15:25:20.180Z,10.82
2023-04-26T15:27:47.933Z,11.09
2023-04-26T15:30:15.184Z,11.19
2023-04-26T15:32:42.363Z,11.21
2023-04-26T15:35:13.288Z,11.18
2023-04-26T15:37:41.041Z,11.07
2023-04-26T15:40:10.926Z,11.15
2023-04-26T15:42:37.857Z,11.24
2023-04-26T15:45:05.563Z,11.29
2023-04-26T15:47:36.312Z,11.37
2023-04-26T15:50:04.709Z,11.16
2023-04-26T15:52:38.976Z,11.48
2023-04-26T15:55:10.043Z,10.97
2023-04-26T15:57:37.316Z,10.94
2023-04-26T16:00:09.196Z,11.00
2023-04-26T16:02:37.765Z,11.07
2023-04-26T16:05:05.315Z,10.97
2023-04-26T16:07:33.199Z,10.64
2023-04-26T16:09:59.987Z,10.83
2023-04-26T16:12:27.540Z,10.95
2023-04-26T16:14:54.766Z,11.12
2023-04-26T16:17:22.501Z,10.95
2023-04-26T16:19:49.991Z,10.89
2023-04-26T16:22:17.474Z,10.91
2023-04-26T16:24:44.624Z,11.00
2023-04-26T16:27:11.512Z,10.87
2023-04-26T16:29:38.813Z,10.89
2023-04-26T16:32:05.652Z,10.75
2023-04-26T16:34:33.590Z,10.58
2023-04-26T16:37:00.660Z,10.48
2023-04-26T16:39:29.024Z,10.46
2023-04-26T16:41:56.081Z,10.55
2023-04-26T16:44:23.351Z,10.59
2023-04-26T16:46:50.116Z,10.68
2023-04-26T16:49:17.115Z,10.88
2023-04-26T16:51:53.705Z,10.82
2023-04-26T16:54:21.275Z,10.77
2023-04-26T16:56:48.235Z,10.51
2023-04-26T16:59:15.288Z,10.37
2023-04-26T17:01:44.702Z,10.49
2023-04-26T17:04:13.096Z,10.58
2023-04-26T17:06:40.954Z,10.53
2023-04-26T17:09:09.002Z,10.39
2023-04-26T17:11:37.633Z,10.27
2023-04-26T17:14:04.776Z,10.36
2023-04-26T17:16:32.087Z,10.51
2023-04-26T17:18:59.354Z,10.27
2023-04-26T17:21:26.706Z,10.17
2023-04-26T17:23:53.689Z,10.29
2023-04-26T17:26:22.441Z,10.38
2023-04-26T17:28:49.852Z,10.17
2023-04-26T17:31:16.602Z,9.96
2023-04-26T17:33:43.865Z,9.81
2023-04-26T17:36:11.234Z,9.85
2023-04-26T17:38:38.144Z,9.80
2023-04-26T17:41:05.057Z,9.67
2023-04-26T17:43:32.450Z,9.63
2023-04-26T17:45:59.406Z,9.63
2023-04-26T17:48:26.605Z,9.78
2023-04-26T17:50:53.907Z,9.82
2023-04-26T17:53:21.888Z,9.58
2023-04-26T17:55:49.836Z,9.60
2023-04-26T17:58:16.731Z,9.75
2023-04-26T18:00:44.036Z,9.72
2023-04-26T18:03:12.692Z,9.63
2023-04-26T18:05:40.160Z,9.59
2023-04-26T18:08:07.062Z,9.69
2023-04-26T18:10:33.946Z,9.60
2023-04-26T18:13:01.257Z,9.44
2023-04-26T18:15:28.487Z,9.23
2023-04-26T18:17:55.382Z,9.22
2023-04-26T18:20:22.983Z,9.32
2023-04-26T18:22:50.077Z,9.02
2023-04-26T18:25:17.286Z,9.21
2023-04-26T18:27:44.752Z,9.31
2023-04-26T18:30:13.584Z,9.18
2023-04-26T18:32:41.566Z,9.09
2023-04-26T18:35:09.446Z,8.92
2023-04-26T18:37:36.637Z,8.86
2023-04-26T18:40:05.337Z,8.94
2023-04-26T18:42:32.326Z,8.86
2023-04-26T18:45:01.259Z,8.86
2023-04-26T18:47:28.219Z,8.80
2023-04-26T18:49:55.075Z,8.72
2023-04-26T18:52:22.264Z,8.63
2023-04-26T18:54:49.344Z,8.63
2023-04-26T18:57:18.418Z,8.56
2023-04-26T18:59:45.202Z,8.51
2023-04-26T19:02:12.457Z,8.40
2023-04-26T19:04:40.248Z,8.26
2023-04-26T19:07:07.287Z,8.23
2023-04-26T19:09:43.206Z,8.19
2023-04-26T19:12:17.473Z,7.97
2023-04-26T19:14:44.493Z,7.91
2023-04-26T19:17:11.632Z,7.84
2023-04-26T19:19:38.504Z,7.91
2023-04-26T19:22:05.684Z,7.88
2023-04-26T19:24:32.458Z,7.76
2023-04-26T19:26:59.117Z,7.71
2023-04-26T19:29:25.915Z,7.74
2023-04-26T19:31:52.790Z,7.48
2023-04-26T19:34:19.582Z,7.16
2023-04-26T19:36:46.613Z,7.01
2023-04-26T19:39:13.423Z,7.15
2023-04-26T19:41:40.180Z,7.05
2023-04-26T19:44:07.037Z,7.12
2023-04-26T19:46:34.162Z,7.12
2023-04-26T19:49:01.250Z,7.11
2023-04-26T19:51:28.389Z,7.14
2023-04-26T19:53:55.146Z,7.18
2023-04-26T19:56:23.465Z,7.18
2023-04-26T19:58:50.164Z,7.19
2023-04-26T20:01:17.011Z,7.00
2023-04-26T20:03:43.975Z,7.18
2023-04-26T20:06:12.041Z,7.32
2023-04-26T20:08:39.116Z,7.13
2023-04-26T20:11:05.956Z,7.27
2023-04-26T20:13:33.064Z,7.19
2023-04-26T20:15:59.775Z,7.17
2023-04-26T20:18:26.609Z,7.27
2023-04-26T20:20:53.746Z,7.12
2023-04-26T20:23:20.509Z,7.17
2023-04-26T20:25:47.216Z,7.21
2023-04-26T20:28:13.960Z,7.24
2023-04-26T20:30:40.961Z,7.10
2023-04-26T20:33:08.311Z,7.07
2023-04-26T20:35:35.078Z,7.21
2023-04-26T20:38:01.920Z,7.00
2023-04-26T20:40:28.949Z,6.85
2023-04-26T20:42:55.856Z,6.83
2023-04-26T20:45:22.626Z,6.90
2023-04-26T20:47:49.391Z,6.89
2023-04-26T20:50:16.541Z,6.92
2023-04-26T20:52:43.868Z,6.67
2023-04-26T20:55:10.830Z,6.70
2023-04-26T20:57:38.710Z,6.77
2023-04-26T21:00:07.715Z,6.59
2023-04-26T21:02:34.555Z,6.77
2023-04-26T21:05:01.393Z,6.64
2023-04-26T21:07:28.279Z,6.74
2023-04-26T21:09:54.992Z,6.70
2023-04-26T21:12:21.792Z,6.63
2023-04-26T21:14:48.692Z,6.63
2023-04-26T21:17:16.382Z,6.66
2023-04-26T21:19:43.778Z,6.61
2023-04-26T21:22:13.592Z,6.56
2023-04-26T21:24:52.892Z,6.62
2023-04-26T21:27:29.709Z,6.62
2023-04-26T21:29:57.319Z,6.61
2023-04-26T21:32:24.501Z,6.56
2023-04-26T21:34:51.313Z,6.54
2023-04-26T21:37:18.260Z,6.56
2023-04-26T21:39:45.072Z,6.47
2023-04-26T21:42:11.921Z,6.57
2023-04-26T21:44:38.812Z,6.69
2023-04-26T21:47:05.824Z,6.66
2023-04-26T21:49:32.594Z,6.56
2023-04-26T21:51:59.517Z,6.58
2023-04-26T21:54:26.296Z,6.52
2023-04-26T21:56:53.295Z,6.41
2023-04-26T21:59:19.995Z,6.27
2023-04-26T22:01:46.919Z,6.30
2023-04-26T22:04:14.141Z,6.37
2023-04-26T22:06:40.919Z,6.23
2023-04-26T22:09:10.382Z,6.12
2023-04-26T22:11:37.287Z,6.35
2023-04-26T22:14:04.332Z,6.27
2023-04-26T22:16:32.203Z,6.28
2023-04-26T22:18:59.059Z,6.29
2023-04-26T22:21:27.181Z,6.23
2023-04-26T22:23:54.072Z,6.02
2023-04-26T22:26:21.518Z,6.06
2023-04-26T22:28:48.392Z,6.05
2023-04-26T22:31:15.077Z,6.19
2023-04-26T22:33:41.844Z,6.18
2023-04-26T22:36:09.188Z,6.04
2023-04-26T22:38:36.141Z,6.12
2023-04-26T22:41:02.980Z,5.99
2023-04-26T22:43:29.684Z,6.11
2023-04-26T22:45:56.546Z,6.05
2023-04-26T22:48:23.488Z,5.80
2023-04-26T22:50:50.869Z,5.91
2023-04-26T22:53:17.722Z,5.96
2023-04-26T22:55:44.570Z,5.92
2023-04-26T22:58:11.505Z,5.81
2023-04-26T23:00:38.391Z,5.80
2023-04-26T23:03:05.264Z,5.78
2023-04-26T23:05:32.052Z,5.75
2023-04-26T23:07:58.861Z,6.02
2023-04-26T23:10:25.773Z,5.90
2023-04-26T23:12:53.192Z,5.89
2023-04-26T23:15:20.126Z,5.81
2023-04-26T23:17:47.236Z,5.84
2023-04-26T23:20:14.250Z,5.84
2023-04-26T23:22:41.804Z,5.79
2023-04-26T23:25:09.402Z,5.82
2023-04-26T23:27:37.501Z,5.56
2023-04-26T23:30:04.963Z,5.73
2023-04-26T23:32:31.870Z,5.85
2023-04-26T23:34:59.052Z,5.88
2023-04-26T23:37:26.112Z,5.86
2023-04-26T23:39:52.812Z,5.87
2023-04-26T23:42:19.555Z,5.89
2023-04-26T23:44:46.220Z,5.91
2023-04-26T23:47:13.080Z,5.95
2023-04-26T23:49:39.794Z,5.83
2023-04-26T23:52:06.942Z,5.76
2023-04-26T23:54:33.630Z,5.82
2023-04-26T23:57:00.317Z,5.73
2023-04-26T23:59:27.108Z,5.75
